Time;durP1;ratioP1;P1;durP2;ratioP2;P2;SDS_P1;SDS_P2;PMS_P1;PMS_P2;Temp;Humidity;BMP_temperature;BMP_pressure;BME280_temperature;BME280_humidity;BME280_pressure;Samples;Min_cycle;Max_cycle;Signal;HPM_P1;HPM_P2
2023/07/02 00:00:40;;;;;;;;;;;;;;;16.97;100.00;97835.77;135574;1278;22510;-66
2023/07/02 00:04:02;;;;;;;40.40;24.20;;;;;;;16.96;100.00;97839.25;135564;1278;22524;-66
2023/07/02 00:07:05;;;;;;;;;;;;;;;16.92;100.00;97840.13;135572;1278;22509;-66
2023/07/02 00:10:07;;;;;;;;;;;;;;;16.84;100.00;97840.11;135566;1278;25480;-65
2023/07/02 00:13:10;;;;;;;38.80;22.80;;;;;;;16.78;100.00;97844.02;135581;1278;22534;-64
2023/07/02 00:16:12;;;;;;;;;;;;;;;16.74;100.00;97843.53;135551;1278;25399;-66
2023/07/02 00:19:15;;;;;;;30.40;17.00;;;;;;;16.69;100.00;97841.58;135497;1278;22530;-65
2023/07/02 00:22:17;;;;;;;38.00;21.70;;;;;;;16.67;100.00;97842.13;135528;1278;22540;-65
2023/07/02 00:25:20;;;;;;;38.40;23.30;;;;;;;16.67;100.00;97841.93;135555;1279;23226;-65
2023/07/02 00:28:22;;;;;;;36.20;21.40;;;;;;;16.59;100.00;97837.79;135595;1278;22673;-65
2023/07/02 00:31:24;;;;;;;;;;;;;;;16.56;100.00;97838.10;135494;1278;22588;-65
2023/07/02 00:34:27;;;;;;;40.80;22.10;;;;;;;16.48;100.00;97838.73;135574;1278;22552;-65
2023/07/02 00:37:29;;;;;;;38.90;21.00;;;;;;;16.50;100.00;97835.02;135559;1278;25936;-65
2023/07/02 00:40:32;;;;;;;;;;;;;;;16.48;100.00;97836.42;135584;1278;22512;-65
2023/07/02 00:43:34;;;;;;;40.30;22.80;;;;;;;16.39;100.00;97836.52;135443;1262;22536;-65
2023/07/02 00:46:36;;;;;;;37.80;23.20;;;;;;;16.43;100.00;97836.13;135568;1278;22633;-65
2023/07/02 00:49:39;;;;;;;;;;;;;;;16.41;100.00;97835.18;135535;1278;25622;-65
2023/07/02 00:52:41;;;;;;;38.40;22.50;;;;;;;16.32;100.00;97833.27;135541;1278;22561;-65
2023/07/02 00:55:44;;;;;;;;;;;;;;;16.29;100.00;97825.17;135570;1278;22505;-65
2023/07/02 00:58:48;;;;;;;41.90;23.70;;;;;;;16.29;100.00;97828.32;135567;1278;23010;-65
2023/07/02 01:01:50;;;;;;;42.70;25.10;;;;;;;16.31;100.00;97825.35;135552;1279;22529;-65
2023/07/02 01:04:57;;;;;;;42.90;25.10;;;;;;;16.35;100.00;97822.21;135457;1278;22648;-65
2023/07/02 01:08:00;;;;;;;37.70;22.70;;;;;;;16.35;100.00;97823.66;135455;1278;23328;-65
2023/07/02 01:11:02;;;;;;;;;;;;;;;16.38;100.00;97825.77;135526;1278;22512;-65
2023/07/02 01:14:04;;;;;;;42.10;23.20;;;;;;;16.33;100.00;97823.70;135580;1278;22541;-65
2023/07/02 01:17:07;;;;;;;;;;;;;;;16.26;100.00;97820.33;135552;1262;22498;-66
2023/07/02 01:20:09;;;;;;;34.90;20.70;;;;;;;16.18;100.00;97819.52;135565;1278;24198;-65
2023/07/02 01:23:12;;;;;;;35.60;20.10;;;;;;;16.16;100.00;97824.52;135567;1278;24243;-65
2023/07/02 01:26:14;;;;;;;34.30;19.80;;;;;;;16.17;100.00;97819.61;135525;1278;22528;-66
2023/07/02 01:29:16;;;;;;;;;;;;;;;16.18;100.00;97816.50;135520;1278;22511;-66
2023/07/02 01:32:19;;;;;;;43.50;24.90;;;;;;;16.12;100.00;97813.98;135518;1278;22628;-66
2023/07/02 01:35:21;;;;;;;;;;;;;;;16.12;100.00;97812.23;135561;1278;22517;-65
2023/07/02 01:38:23;;;;;;;41.50;25.30;;;;;;;16.04;100.00;97811.73;135557;1278;22572;-66
2023/07/02 01:41:26;;;;;;;;;;;;;;;15.99;100.00;97805.50;135551;1278;22511;-65
2023/07/02 01:44:28;;;;;;;38.00;24.80;;;;;;;15.92;100.00;97802.20;135509;1278;22563;-65
2023/07/02 01:47:31;;;;;;;37.80;22.40;;;;;;;15.83;100.00;97799.55;135561;1278;25485;-66
2023/07/02 01:50:33;;;;;;;;;;;;;;;15.77;100.00;97799.91;135534;1278;24208;-65
2023/07/02 01:53:36;;;;;;;34.60;19.00;;;;;;;15.73;100.00;97799.21;135522;1278;22552;-65
2023/07/02 01:56:38;;;;;;;;;;;;;;;15.76;100.00;97796.69;135582;1278;22763;-65
2023/07/02 01:59:40;;;;;;;39.60;21.80;;;;;;;15.79;100.00;97797.14;135559;1278;22550;-66
2023/07/02 02:02:43;;;;;;;;;;;;;;;15.81;100.00;97793.92;135567;1278;22502;-66
2023/07/02 02:05:45;;;;;;;37.80;22.70;;;;;;;15.87;100.00;97791.25;135546;1278;22616;-66
2023/07/02 02:08:48;;;;;;;;;;;;;;;15.87;100.00;97789.75;135560;1278;24392;-66
2023/07/02 02:11:51;;;;;;;36.40;20.40;;;;;;;15.83;100.00;97789.31;135569;1278;22537;-65
2023/07/02 02:14:54;;;;;;;35.20;20.00;;;;;;;15.85;100.00;97791.60;135536;1259;22644;-65
2023/07/02 02:17:56;;;;;;;;;;;;;;;15.93;100.00;97788.36;135570;1278;24397;-66
2023/07/02 02:20:59;;;;;;;38.10;20.00;;;;;;;15.92;100.00;97791.10;135514;1278;22535;-66
2023/07/02 02:24:01;;;;;;;;;;;;;;;15.99;100.00;97789.00;135527;1278;22501;-65
2023/07/02 02:27:04;;;;;;;39.30;20.60;;;;;;;16.07;100.00;97791.30;135453;1278;23886;-65
2023/07/02 02:30:06;;;;;;;;;;;;;;;16.18;100.00;97790.08;135539;1279;22535;-66
2023/07/02 02:33:08;;;;;;;34.40;20.10;;;;;;;16.18;100.00;97787.48;135561;1278;22523;-65
2023/07/02 02:36:11;;;;;;;;;;;;;;;16.17;100.00;97788.55;135537;1278;22522;-65
2023/07/02 02:39:13;;;;;;;35.60;20.70;;;;;;;16.15;100.00;97792.00;135555;1278;22581;-65
2023/07/02 02:42:16;;;;;;;35.50;20.80;;;;;;;16.15;100.00;97793.56;135565;1278;24387;-65
2023/07/02 02:45:18;;;;;;;;;;;;;;;16.13;100.00;97793.58;135560;1279;22501;-66
2023/07/02 02:48:22;;;;;;;34.50;19.30;;;;;;;16.11;100.00;97791.95;135507;1262;22627;-65
2023/07/02 02:51:24;;;;;;;35.50;19.90;;;;;;;16.08;100.00;97788.40;135503;1278;25504;-65
2023/07/02 02:54:27;;;;;;;;;;;;;;;16.06;100.00;97790.09;135531;1278;22514;-65
2023/07/02 02:57:29;;;;;;;34.70;18.90;;;;;;;16.06;100.00;97789.63;135542;1278;22553;-65
2023/07/02 03:00:32;;;;;;;36.50;20.30;;;;;;;15.98;100.00;97787.70;135552;1279;22524;-65
2023/07/02 03:03:37;;;;;;;;;;;;;;;15.95;100.00;97792.05;135599;1278;22532;-65
2023/07/02 03:06:40;;;;;;;34.80;18.80;;;;;;;15.97;100.00;97791.12;135539;1278;22530;-65
2023/07/02 03:09:42;;;;;;;;;;;;;;;16.03;100.00;97789.64;135567;1278;22514;-65
2023/07/02 03:12:45;;;;;;;34.30;18.40;;;;;;;16.10;100.00;97793.50;135548;1256;24384;-64
2023/07/02 03:15:47;;;;;;;;;;;;;;;16.24;100.00;97793.66;135529;1279;22521;-64
2023/07/02 03:18:49;;;;;;;33.40;18.30;;;;;;;16.36;100.00;97794.43;135539;1262;22524;-64
2023/07/02 03:21:52;;;;;;;;;;;;;;;16.51;100.00;97795.77;135494;1279;22520;-64
2023/07/02 03:24:54;;;;;;;33.10;17.50;;;;;;;16.67;100.00;97794.48;135380;1279;193755;-64
2023/07/02 03:27:57;;;;;;;;;;;;;;;16.78;100.00;97790.16;135539;1271;22609;-65
2023/07/02 03:30:59;;;;;;;32.50;17.70;;;;;;;16.89;100.00;97792.79;135529;1262;22996;-64
2023/07/02 03:34:02;;;;;;;31.30;17.10;;;;;;;17.01;100.00;97793.01;135562;1278;22522;-64
2023/07/02 03:37:04;;;;;;;33.50;17.90;;;;;;;17.12;100.00;97788.17;135548;1275;22553;-64
2023/07/02 03:40:06;;;;;;;31.60;16.90;;;;;;;16.99;100.00;97791.98;135540;1279;22527;-64
2023/07/02 03:43:09;;;;;;;30.50;16.60;;;;;;;17.09;100.00;97792.51;135464;1279;22539;-64
2023/07/02 03:46:12;;;;;;;33.10;16.50;;;;;;;17.18;100.00;97789.07;135508;1278;22530;-64
2023/07/02 03:49:14;;;;;;;32.20;17.00;;;;;;;17.46;100.00;97793.91;135565;1279;25351;-65
2023/07/02 03:52:17;;;;;;;32.50;16.50;;;;;;;17.67;100.00;97790.83;135543;1278;22557;-64
2023/07/02 03:55:19;;;;;;;38.50;21.90;;;;;;;17.91;100.00;97791.86;135526;1278;22537;-64
2023/07/02 03:58:22;;;;;;;49.40;31.70;;;;;;;18.05;100.00;97797.61;135551;1278;22526;-65
2023/07/02 04:01:25;;;;;;;48.10;33.40;;;;;;;18.33;100.00;97791.95;135545;1278;22639;-65
2023/07/02 04:04:27;;;;;;;50.90;33.80;;;;;;;18.59;100.00;97792.23;135546;1275;22521;-64
2023/07/02 04:07:30;;;;;;;44.80;28.10;;;;;;;18.79;100.00;97786.83;135554;1278;22530;-65
2023/07/02 04:10:32;;;;;;;34.00;16.60;;;;;;;19.03;100.00;97783.88;135556;1262;22636;-66
2023/07/02 04:13:34;;;;;;;32.40;16.50;;;;;;;19.18;100.00;97781.74;135552;1278;22523;-65
2023/07/02 04:16:37;;;;;;;33.40;16.50;;;;;;;19.32;100.00;97780.41;135553;1269;22552;-66
2023/07/02 04:19:39;;;;;;;35.50;16.70;;;;;;;19.45;100.00;97775.25;135544;1279;22631;-65
2023/07/02 04:22:42;;;;;;;33.30;16.90;;;;;;;19.60;100.00;97778.80;135579;1279;22542;-65
2023/07/02 04:25:44;;;;;;;35.00;18.10;;;;;;;19.80;100.00;97779.79;135535;1278;22557;-66
2023/07/02 04:28:46;;;;;;;37.30;17.90;;;;;;;19.82;100.00;97781.51;135288;1278;22533;-65
2023/07/02 04:31:49;;;;;;;33.40;16.60;;;;;;;19.88;100.00;97773.64;135360;1279;25087;-65
2023/07/02 04:34:51;;;;;;;30.50;16.20;;;;;;;19.98;100.00;97761.48;135339;1278;22543;-65
2023/07/02 04:37:54;;;;;;;36.60;17.20;;;;;;;20.08;100.00;97768.48;135336;1278;22549;-66
2023/07/02 04:41:01;;;;;;;35.90;17.30;;;;;;;20.17;100.00;97775.09;135337;1278;25647;-65
2023/07/02 04:44:03;;;;;;;31.20;15.20;;;;;;;20.20;100.00;97778.46;135508;1279;24277;-65
2023/07/02 04:47:06;;;;;;;32.90;14.90;;;;;;;20.23;100.00;97780.77;135523;1278;22545;-64
2023/07/02 04:50:08;;;;;;;31.80;14.10;;;;;;;20.21;100.00;97784.77;135550;1279;22640;-65
2023/07/02 04:53:10;;;;;;;30.10;15.00;;;;;;;20.34;100.00;97790.21;135496;1279;22531;-65
2023/07/02 04:56:13;;;;;;;32.10;14.40;;;;;;;20.32;100.00;97789.16;135524;1278;22539;-64
2023/07/02 04:59:15;;;;;;;32.10;13.50;;;;;;;20.35;100.00;97792.29;135556;1278;22550;-67
2023/07/02 05:02:18;;;;;;;29.80;13.70;;;;;;;20.42;100.00;97798.30;135499;1278;22691;-65
2023/07/02 05:05:20;;;;;;;31.10;13.50;;;;;;;20.40;100.00;97794.61;135531;1279;25300;-64
2023/07/02 05:08:22;;;;;;;27.70;12.90;;;;;;;20.43;100.00;97802.57;135501;1278;22557;-64
2023/07/02 05:11:25;;;;;;;31.60;13.80;;;;;;;20.47;100.00;97798.28;135521;1278;22546;-67
2023/07/02 05:14:27;;;;;;;28.50;13.80;;;;;;;20.53;100.00;97799.32;135529;1278;22554;-65
2023/07/02 05:17:30;;;;;;;27.10;13.30;;;;;;;20.53;100.00;97803.00;135546;1279;22568;-65
2023/07/02 05:20:33;;;;;;;28.40;13.10;;;;;;;20.56;100.00;97808.55;135522;1278;22558;-65
2023/07/02 05:23:35;;;;;;;31.90;13.90;;;;;;;20.56;100.00;97809.98;135546;1278;25593;-65
2023/07/02 05:26:37;;;;;;;28.90;13.50;;;;;;;20.51;100.00;97814.33;135529;1279;22546;-65
2023/07/02 05:29:40;;;;;;;30.10;13.20;;;;;;;20.45;100.00;97817.59;135561;1278;22538;-65
2023/07/02 05:32:42;;;;;;;32.50;13.80;;;;;;;20.43;100.00;97822.48;135522;1279;23783;-65
2023/07/02 05:35:45;;;;;;;27.70;12.90;;;;;;;20.52;100.00;97827.33;135525;1278;22530;-65
2023/07/02 05:38:48;;;;;;;27.80;12.30;;;;;;;20.67;100.00;97824.98;135553;1278;22533;-65
2023/07/02 05:41:50;;;;;;;25.80;11.40;;;;;;;20.86;100.00;97827.61;135547;1279;22639;-65
2023/07/02 05:44:53;;;;;;;28.30;12.80;;;;;;;21.02;100.00;97827.79;135542;1279;22495;-68
2023/07/02 05:47:55;;;;;;;25.40;12.00;;;;;;;21.07;100.00;97833.55;135572;1279;22542;-65
2023/07/02 05:50:57;;;;;;;29.00;11.70;;;;;;;21.16;100.00;97834.79;135541;1278;22535;-65
2023/07/02 05:54:00;;;;;;;25.40;11.20;;;;;;;21.19;100.00;97835.77;135515;1278;22544;-65
2023/07/02 05:57:02;;;;;;;26.30;10.70;;;;;;;21.19;100.00;97842.41;135559;1279;22538;-67
2023/07/02 06:00:05;;;;;;;24.70;10.60;;;;;;;21.19;100.00;97838.53;135529;1262;22961;-65
2023/07/02 06:03:07;;;;;;;28.60;12.30;;;;;;;21.15;100.00;97845.96;135567;1279;22542;-64
2023/07/02 06:06:11;;;;;;;25.30;9.90;;;;;;;21.07;100.00;97848.15;135570;1279;22544;-66
2023/07/02 06:09:13;;;;;;;26.10;10.60;;;;;;;20.97;100.00;97845.63;135530;1278;23708;-65
2023/07/02 06:12:15;;;;;;;23.50;10.40;;;;;;;20.95;100.00;97850.58;135537;1279;22560;-65
2023/07/02 06:15:18;;;;;;;27.60;9.50;;;;;;;21.01;100.00;97853.65;135552;1278;22534;-65
2023/07/02 06:18:20;;;;;;;27.90;10.10;;;;;;;21.05;100.00;97852.44;135542;1278;25309;-68
2023/07/02 06:21:23;;;;;;;22.80;9.40;;;;;;;21.18;100.00;97851.98;135543;1279;22535;-65
2023/07/02 06:24:25;;;;;;;22.40;8.80;;;;;;;21.23;100.00;97854.02;135526;1279;22556;-66
2023/07/02 06:27:28;;;;;;;22.40;8.50;;;;;;;21.25;100.00;97853.77;135555;1278;22536;-65
2023/07/02 06:30:30;;;;;;;26.10;9.70;;;;;;;21.19;100.00;97858.52;135565;1270;22537;-65
2023/07/02 06:33:32;;;;;;;24.20;9.30;;;;;;;21.30;100.00;97860.63;135549;1278;24376;-66
2023/07/02 06:36:35;;;;;;;22.60;8.60;;;;;;;21.56;100.00;97861.84;135561;1279;22553;-65
2023/07/02 06:39:37;;;;;;;22.70;8.40;;;;;;;21.55;100.00;97862.98;135558;1279;22553;-66
2023/07/02 06:42:40;;;;;;;23.10;8.40;;;;;;;21.55;100.00;97856.41;135584;1279;22650;-65
2023/07/02 06:45:42;;;;;;;21.20;8.20;;;;;;;21.61;100.00;97864.11;135513;1264;24223;-66
2023/07/02 06:48:44;;;;;;;21.50;8.00;;;;;;;21.64;100.00;97865.70;135575;1279;22520;-65
2023/07/02 06:51:47;;;;;;;21.50;7.90;;;;;;;21.77;100.00;97863.55;135588;1279;22525;-67
2023/07/02 06:54:49;;;;;;;19.60;7.30;;;;;;;21.72;98.97;97867.56;135518;1263;22659;-65
2023/07/02 06:57:52;;;;;;;20.70;7.10;;;;;;;21.72;97.72;97867.56;135552;1279;25634;-65
2023/07/02 07:00:54;;;;;;;20.20;7.00;;;;;;;21.78;97.70;97876.45;135563;1279;22542;-65
2023/07/02 07:03:56;;;;;;;20.30;7.00;;;;;;;21.77;97.13;97874.63;135543;1270;22702;-65
2023/07/02 07:06:59;;;;;;;22.00;6.80;;;;;;;21.94;97.17;97874.89;135532;1260;24224;-66
2023/07/02 07:10:01;;;;;;;20.30;6.30;;;;;;;22.19;96.58;97876.92;135478;1270;22554;-66
2023/07/02 07:13:04;;;;;;;21.40;6.70;;;;;;;22.24;94.96;97884.08;135457;1279;22542;-65
2023/07/02 07:16:06;;;;;;;20.00;5.90;;;;;;;22.21;91.75;97884.45;135541;1262;23407;-65
2023/07/02 07:19:09;;;;;;;19.30;6.00;;;;;;;22.26;93.10;97883.48;135522;1279;22538;-65
2023/07/02 07:22:11;;;;;;;18.80;6.10;;;;;;;22.39;93.17;97890.52;135545;1278;25501;-68
2023/07/02 07:25:14;;;;;;;21.90;6.10;;;;;;;22.56;91.80;97887.53;135554;1279;23756;-66
2023/07/02 07:28:16;;;;;;;17.30;5.10;;;;;;;23.01;88.57;97896.62;135572;1279;22612;-66
2023/07/02 07:31:19;;;;;;;16.80;5.10;;;;;;;23.46;82.28;97899.45;135562;1279;24396;-65
2023/07/02 07:34:21;;;;;;;17.00;5.20;;;;;;;23.51;80.02;97902.15;135548;1279;22539;-65
2023/07/02 07:37:25;;;;;;;17.10;5.50;;;;;;;23.58;83.86;97897.19;135557;1279;22539;-65
2023/07/02 07:40:27;;;;;;;12.30;4.00;;;;;;;23.72;84.13;97896.92;135558;1279;22617;-66
2023/07/02 07:43:29;;;;;;;13.60;4.10;;;;;;;23.61;75.75;97909.99;135514;1279;24349;-67
2023/07/02 07:46:32;;;;;;;12.70;3.70;;;;;;;23.41;76.96;97906.86;135537;1279;22546;-65
2023/07/02 07:49:34;;;;;;;10.80;3.80;;;;;;;23.74;78.11;97905.11;135570;1279;22624;-65
2023/07/02 07:52:37;;;;;;;8.90;2.90;;;;;;;24.12;75.21;97911.59;135485;1279;24228;-66
2023/07/02 07:55:39;;;;;;;10.80;2.90;;;;;;;24.34;72.77;97907.98;135495;1270;22542;-66
2023/07/02 07:58:41;;;;;;;11.00;3.20;;;;;;;24.13;71.67;97906.64;135531;1279;22527;-66
2023/07/02 08:01:46;;;;;;;13.10;3.20;;;;;;;24.06;72.23;97900.04;135584;1279;22534;-66
2023/07/02 08:04:48;;;;;;;10.40;2.80;;;;;;;23.96;73.77;97908.83;135561;1279;22639;-68
2023/07/02 08:07:51;;;;;;;9.60;2.90;;;;;;;23.88;73.56;97910.84;135521;1278;25309;-68
2023/07/02 08:10:53;;;;;;;9.50;3.00;;;;;;;23.78;74.73;97904.52;135479;1279;25486;-70
2023/07/02 08:13:56;;;;;;;7.30;2.90;;;;;;;23.56;76.13;97914.71;135520;1279;22557;-66
2023/07/02 08:16:58;;;;;;;10.20;2.90;;;;;;;23.36;77.31;97932.64;135570;1278;22632;-66
2023/07/02 08:20:00;;;;;;;10.90;3.20;;;;;;;23.08;78.02;97940.29;135552;1279;25344;-67
2023/07/02 08:23:03;;;;;;;11.40;3.10;;;;;;;22.75;80.68;97941.34;135547;1279;22530;-66
2023/07/02 08:26:05;;;;;;;10.20;2.60;;;;;;;22.50;83.92;97948.27;135603;1278;22534;-66
2023/07/02 08:29:08;;;;;;;12.80;3.00;;;;;;;22.35;83.38;97957.08;135580;1279;22534;-66
2023/07/02 08:32:10;;;;;;;8.50;3.00;;;;;;;22.25;86.94;97967.52;135519;1279;22561;-68
2023/07/02 08:35:12;;;;;;;10.60;2.80;;;;;;;22.09;89.64;97969.27;135574;1279;22531;-67
2023/07/02 08:38:15;;;;;;;9.50;2.80;;;;;;;21.83;93.43;97966.52;135550;1257;22506;-66
2023/07/02 08:41:18;;;;;;;9.20;3.10;;;;;;;21.58;97.41;97971.02;135582;1279;22537;-66
2023/07/02 08:44:20;;;;;;;7.50;2.70;;;;;;;21.47;100.00;97970.20;135527;1279;22551;-66
2023/07/02 08:47:23;;;;;;;11.00;3.10;;;;;;;21.37;100.00;97974.03;135541;1279;22777;-65
2023/07/02 08:50:25;;;;;;;9.20;3.00;;;;;;;21.28;100.00;97980.02;135542;1279;22549;-66
2023/07/02 08:53:30;;;;;;;11.80;3.80;;;;;;;21.17;100.00;97971.05;135545;1279;22524;-67
2023/07/02 08:56:32;;;;;;;8.80;3.30;;;;;;;21.20;100.00;97972.73;135553;1279;22688;-66
2023/07/02 08:59:35;;;;;;;11.70;3.30;;;;;;;21.31;100.00;97970.84;135545;1270;22538;-66
2023/07/02 09:02:37;;;;;;;8.10;3.00;;;;;;;21.57;100.00;97974.13;135542;1279;22530;-66
2023/07/02 09:05:40;;;;;;;7.00;2.90;;;;;;;21.56;100.00;97973.23;135507;1279;22668;-67
2023/07/02 09:08:42;;;;;;;9.80;3.60;;;;;;;21.69;100.00;97977.35;135550;1261;22542;-68
2023/07/02 09:11:45;;;;;;;9.20;3.20;;;;;;;21.86;100.00;97967.41;135563;1278;25352;-66
2023/07/02 09:14:47;;;;;;;8.00;3.10;;;;;;;22.11;100.00;97975.95;135568;1279;25256;-66
2023/07/02 09:17:49;;;;;;;11.90;3.40;;;;;;;22.25;100.00;97978.38;135537;1279;22530;-68
2023/07/02 09:20:52;;;;;;;14.70;3.30;;;;;;;22.48;100.00;97982.22;135542;1279;22537;-65
2023/07/02 09:23:54;;;;;;;9.10;3.10;;;;;;;22.61;100.00;97981.85;135549;1279;22550;-66
2023/07/02 09:26:57;;;;;;;9.40;3.30;;;;;;;22.77;100.00;97977.84;135577;1279;25228;-70
2023/07/02 09:30:00;;;;;;;10.10;3.10;;;;;;;23.06;100.00;97973.51;135571;1279;22577;-66
2023/07/02 09:33:02;;;;;;;10.00;3.30;;;;;;;23.23;100.00;97983.89;135569;1279;22553;-66
2023/07/02 09:36:05;;;;;;;8.70;3.30;;;;;;;23.14;100.00;97979.70;135552;1279;22638;-68
2023/07/02 09:39:07;;;;;;;11.00;3.20;;;;;;;22.98;100.00;97985.25;135539;1279;22655;-65
2023/07/02 09:42:10;;;;;;;9.70;3.20;;;;;;;22.54;100.00;97984.20;135541;1261;24258;-66
2023/07/02 09:45:13;;;;;;;8.80;3.20;;;;;;;22.46;100.00;97989.02;135507;1278;25401;-66
2023/07/02 09:48:16;;;;;;;9.80;3.10;;;;;;;22.70;100.00;97981.46;135576;1279;26027;-65
2023/07/02 09:51:18;;;;;;;14.20;3.40;;;;;;;22.71;100.00;97982.79;135584;1279;22540;-66
2023/07/02 09:54:21;;;;;;;9.40;3.10;;;;;;;22.68;100.00;97977.14;135561;1279;22538;-67
2023/07/02 09:57:24;;;;;;;11.50;3.00;;;;;;;22.69;100.00;97987.63;135568;1279;22551;-65
2023/07/02 10:00:26;;;;;;;9.30;2.90;;;;;;;22.68;100.00;97991.03;135559;1279;24269;-67
2023/07/02 10:03:29;;;;;;;11.20;3.30;;;;;;;22.92;100.00;97983.83;135556;1261;22642;-65
2023/07/02 10:06:31;;;;;;;8.10;2.90;;;;;;;23.25;100.00;97980.53;135571;1277;22533;-65
2023/07/02 10:09:34;;;;;;;8.70;3.00;;;;;;;23.47;100.00;97976.67;135538;1279;22642;-68
2023/07/02 10:12:36;;;;;;;9.00;2.90;;;;;;;23.62;95.53;97978.16;135503;1279;22586;-66
2023/07/02 10:15:39;;;;;;;7.60;2.80;;;;;;;23.70;96.20;97976.23;135565;1278;22538;-65
2023/07/02 10:18:42;;;;;;;10.40;2.80;;;;;;;23.75;94.13;97974.02;135512;1279;24238;-65
2023/07/02 10:21:46;;;;;;;7.30;2.80;;;;;;;23.99;94.72;97965.94;135540;1279;22566;-65
2023/07/02 10:24:49;;;;;;;9.20;2.90;;;;;;;24.25;90.56;97963.26;135559;1279;24507;-66
2023/07/02 10:27:51;;;;;;;6.00;2.40;;;;;;;24.26;90.70;97960.86;135546;1279;25463;-67
2023/07/02 10:30:55;;;;;;;8.20;2.80;;;;;;;24.11;89.07;97964.92;135572;1255;22543;-68
2023/07/02 10:33:57;;;;;;;10.00;2.90;;;;;;;23.86;89.82;97962.88;135603;1279;22548;-67
2023/07/02 10:37:04;;;;;;;7.80;2.70;;;;;;;23.74;91.35;97960.10;135531;1279;22550;-66
2023/07/02 10:40:07;;;;;;;10.10;2.80;;;;;;;23.59;88.98;97970.35;135566;1279;22630;-66
2023/07/02 10:43:10;;;;;;;6.90;2.70;;;;;;;23.09;93.52;97976.83;135542;1279;22556;-67
2023/07/02 10:46:12;;;;;;;5.30;2.50;;;;;;;22.75;99.60;97984.19;135494;1279;22578;-66
2023/07/02 10:49:14;;;;;;;9.20;2.70;;;;;;;22.61;100.00;97978.55;135549;1279;22554;-65
2023/07/02 10:52:17;;;;;;;5.70;2.40;;;;;;;22.72;100.00;97979.35;135539;1260;22480;-66
2023/07/02 10:55:20;;;;;;;8.00;3.00;;;;;;;23.11;100.00;97981.14;135571;1279;22538;-67
2023/07/02 10:58:22;;;;;;;7.60;2.70;;;;;;;23.82;99.71;97972.41;135540;1279;22784;-66
2023/07/02 11:01:25;;;;;;;8.10;2.60;;;;;;;24.66;94.25;97970.11;135567;1279;22534;-65
2023/07/02 11:04:27;;;;;;;9.40;2.80;;;;;;;24.92;85.59;97971.41;135562;1279;22549;-67
2023/07/02 11:07:29;;;;;;;5.40;2.30;;;;;;;25.26;86.77;97959.86;135598;1279;22529;-68
2023/07/02 11:10:32;;;;;;;11.00;2.80;;;;;;;26.24;86.53;97951.05;135551;1279;22653;-67
2023/07/02 11:13:34;;;;;;;8.30;2.80;;;;;;;26.55;73.86;97947.69;135606;1279;23625;-66
2023/07/02 11:16:36;;;;;;;7.90;2.80;;;;;;;26.51;74.69;97942.48;135547;1279;22538;-66
2023/07/02 11:19:39;;;;;;;5.10;2.30;;;;;;;26.69;74.92;97938.45;135520;1261;22595;-65
2023/07/02 11:22:42;;;;;;;5.90;2.30;;;;;;;27.14;69.51;97939.64;135493;1279;22531;-67
2023/07/02 11:25:44;;;;;;;7.10;2.60;;;;;;;27.25;67.08;97941.14;135544;1279;22530;-65
2023/07/02 11:28:46;;;;;;;8.10;2.30;;;;;;;27.11;64.01;97938.21;135546;1278;22556;-70
2023/07/02 11:31:49;;;;;;;5.50;2.10;;;;;;;26.56;64.68;97941.92;135574;1279;22534;-66
2023/07/02 11:34:51;;;;;;;6.00;2.60;;;;;;;26.50;69.94;97939.98;135557;1260;22736;-65
2023/07/02 11:37:54;;;;;;;6.10;2.70;;;;;;;26.82;69.32;97935.83;135583;1279;22552;-65
2023/07/02 11:40:56;;;;;;;5.80;2.50;;;;;;;26.66;66.05;97940.21;135550;1278;24391;-66
2023/07/02 11:43:59;;;;;;;5.50;2.20;;;;;;;26.34;65.48;97943.64;135565;1279;24272;-67
2023/07/02 11:47:02;;;;;;;5.60;2.20;;;;;;;25.93;67.64;97935.22;135576;1279;22580;-66
2023/07/02 11:50:05;;;;;;;10.80;3.30;;;;;;;26.12;66.68;97935.54;135522;1279;23971;-65
2023/07/02 11:53:07;;;;;;;10.10;3.10;;;;;;;26.62;67.10;97926.96;135488;1279;22554;-67
2023/07/02 11:56:10;;;;;;;4.20;2.10;;;;;;;27.09;63.04;97927.38;135583;1279;22533;-66
2023/07/02 11:59:12;;;;;;;4.80;1.70;;;;;;;27.30;62.30;97925.83;135551;1279;24400;-66
2023/07/02 12:02:15;;;;;;;4.00;1.80;;;;;;;27.51;58.77;97928.96;135565;1279;22524;-65
2023/07/02 12:05:17;;;;;;;3.80;1.90;;;;;;;27.49;55.58;97935.85;135596;1278;22554;-65
2023/07/02 12:08:19;;;;;;;2.90;1.40;;;;;;;27.41;57.08;97933.92;135536;1260;22646;-65
2023/07/02 12:11:22;;;;;;;2.60;1.30;;;;;;;27.13;55.41;97927.39;135570;1261;24376;-65
2023/07/02 12:14:24;;;;;;;2.70;1.60;;;;;;;27.11;56.02;97932.17;135559;1278;22533;-65
2023/07/02 12:17:27;;;;;;;4.20;1.70;;;;;;;26.88;54.97;97932.38;135601;1278;23342;-70
2023/07/02 12:20:29;;;;;;;2.90;1.40;;;;;;;26.54;57.38;97931.68;135602;1279;25430;-66
2023/07/02 12:23:32;;;;;;;4.00;1.40;;;;;;;26.36;56.99;97935.77;135520;1261;22650;-65
2023/07/02 12:26:35;;;;;;;2.90;1.70;;;;;;;26.86;57.04;97924.36;135513;1264;22538;-65
2023/07/02 12:29:37;;;;;;;2.70;1.80;;;;;;;27.54;55.79;97919.48;135588;1279;22536;-64
2023/07/02 12:32:40;;;;;;;3.40;1.70;;;;;;;27.86;53.63;97917.94;135515;1260;22583;-65
2023/07/02 12:35:42;;;;;;;3.80;1.60;;;;;;;27.92;52.43;97923.17;135541;1278;22640;-65
2023/07/02 12:38:44;;;;;;;4.80;2.00;;;;;;;27.20;54.99;97923.63;135543;1279;22529;-68
2023/07/02 12:41:47;;;;;;;3.90;2.20;;;;;;;26.99;57.13;97926.95;135557;1279;22538;-67
2023/07/02 12:44:49;;;;;;;6.10;2.00;;;;;;;27.21;56.25;97925.12;135543;1278;22582;-66
2023/07/02 12:47:52;;;;;;;5.40;2.30;;;;;;;27.24;55.79;97926.75;135532;1278;22533;-66
2023/07/02 12:50:54;;;;;;;5.20;2.10;;;;;;;26.83;56.00;97928.23;135564;1278;22561;-66
2023/07/02 12:53:56;;;;;;;5.70;2.10;;;;;;;26.22;57.53;97927.30;135541;1278;22527;-65
2023/07/02 12:56:59;;;;;;;4.10;2.00;;;;;;;25.79;58.40;97932.05;135549;1278;22711;-66
2023/07/02 13:00:01;;;;;;;6.90;2.30;;;;;;;25.35;60.01;97932.36;135532;1279;22537;-67
2023/07/02 13:03:04;;;;;;;6.30;2.30;;;;;;;24.98;62.05;97932.58;135525;1278;22533;-66
2023/07/02 13:06:06;;;;;;;24.20;3.70;;;;;;;24.74;63.68;97938.61;135601;1278;22549;-66
2023/07/02 13:09:09;;;;;;;3.70;2.10;;;;;;;24.48;65.03;97938.95;135579;1279;22523;-69
2023/07/02 13:12:12;;;;;;;5.30;2.30;;;;;;;24.29;67.33;97952.80;135592;1278;22569;-67
2023/07/02 13:15:14;;;;;;;6.80;2.30;;;;;;;24.11;70.71;97963.52;135549;1278;22575;-66
2023/07/02 13:18:16;;;;;;;6.20;2.30;;;;;;;23.92;74.50;97978.23;135605;1279;22611;-65
2023/07/02 13:21:19;;;;;;;4.10;2.20;;;;;;;23.66;76.93;97984.20;135536;1279;22521;-65
2023/07/02 13:24:21;;;;;;;7.90;2.50;;;;;;;23.45;81.52;97993.70;135527;1279;22564;-66
2023/07/02 13:27:24;;;;;;;4.80;2.30;;;;;;;22.88;89.71;98003.52;135621;1278;22555;-68
2023/07/02 13:30:28;;;;;;;13.00;3.00;;;;;;;22.44;93.98;98009.16;135555;1258;22531;-66
2023/07/02 13:33:31;;;;;;;7.50;2.50;;;;;;;22.18;92.66;98005.77;135573;1278;22531;-65
2023/07/02 13:36:34;;;;;;;6.10;2.10;;;;;;;22.04;95.71;98013.48;135648;1260;22524;-67
2023/07/02 13:39:36;;;;;;;8.90;2.20;;;;;;;21.97;98.52;98015.96;135538;1278;22533;-66
2023/07/02 13:42:41;;;;;;;3.60;2.00;;;;;;;22.19;96.57;98007.89;135581;1278;22553;-66
2023/07/02 13:45:44;;;;;;;5.40;2.40;;;;;;;22.50;92.73;98011.90;135575;1279;22551;-65
2023/07/02 13:48:46;;;;;;;5.60;2.00;;;;;;;22.68;89.01;98003.54;135548;1278;22550;-65
2023/07/02 13:51:50;;;;;;;6.30;2.00;;;;;;;22.88;88.23;97992.28;135525;1279;22547;-68
2023/07/02 13:54:53;;;;;;;6.00;2.40;;;;;;;23.17;88.37;97988.05;135500;1260;22526;-66
2023/07/02 13:57:56;;;;;;;6.30;1.90;;;;;;;23.52;86.52;97978.14;135566;1278;25357;-66
2023/07/02 14:00:59;;;;;;;6.40;2.00;;;;;;;23.78;83.74;97975.43;135588;1279;22500;-67